createdAt,value
2022-07-29T00:01:44.905Z,58.85
2022-07-29T00:04:14.133Z,58.99
2022-07-29T00:06:42.963Z,59.47
2022-07-29T00:09:11.454Z,59.08
2022-07-29T00:11:40.257Z,59.47
2022-07-29T00:14:09.496Z,59.31
2022-07-29T00:16:37.990Z,59.91
2022-07-29T00:19:07.784Z,58.76
2022-07-29T00:21:36.405Z,59.98
2022-07-29T00:24:05.019Z,61.16
2022-07-29T00:26:33.712Z,59.97
2022-07-29T00:31:53.959Z,59.93
2022-07-29T00:34:40.965Z,60.08
2022-07-29T00:37:09.305Z,61.11
2022-07-29T00:39:37.609Z,60.65
2022-07-29T00:42:07.045Z,60.24
2022-07-29T00:44:43.119Z,60.77
2022-07-29T00:47:13.042Z,60.18
2022-07-29T00:49:43.215Z,59.96
2022-07-29T00:52:12.611Z,59.70
2022-07-29T00:54:44.920Z,59.99
2022-07-29T00:57:14.889Z,60.58
2022-07-29T00:59:43.234Z,59.95
2022-07-29T01:02:11.676Z,60.16
2022-07-29T01:04:40.887Z,62.54
2022-07-29T01:07:09.263Z,61.31
2022-07-29T01:09:45.969Z,60.64
2022-07-29T01:12:20.148Z,60.78
2022-07-29T01:14:51.183Z,61.04
2022-07-29T01:17:33.732Z,60.69
2022-07-29T01:20:15.693Z,62.97
2022-07-29T01:23:17.818Z,62.40
2022-07-29T01:26:04.549Z,60.00
2022-07-29T01:29:11.856Z,60.98
2022-07-29T01:31:58.584Z,61.90
2022-07-29T01:34:54.070Z,60.95
2022-07-29T01:37:39.045Z,61.62
2022-07-29T01:40:30.537Z,61.75
2022-07-29T01:43:05.547Z,61.65
2022-07-29T01:45:49.162Z,61.46
2022-07-29T01:48:46.993Z,61.64
2022-07-29T01:51:37.086Z,61.80
2022-07-29T01:54:18.190Z,61.70
2022-07-29T01:56:50.335Z,62.04
2022-07-29T01:59:20.493Z,61.60
2022-07-29T02:01:54.532Z,62.39
2022-07-29T02:04:28.939Z,62.32
2022-07-29T02:07:03.401Z,62.32
2022-07-29T02:09:34.531Z,62.17
2022-07-29T02:12:05.208Z,62.22
2022-07-29T02:14:40.060Z,61.19
2022-07-29T02:17:09.210Z,61.23
2022-07-29T02:19:39.951Z,61.52
2022-07-29T02:22:12.310Z,61.92
2022-07-29T02:24:42.926Z,61.78
2022-07-29T02:27:13.099Z,62.50
2022-07-29T02:29:42.764Z,62.70
2022-07-29T02:32:13.865Z,61.75
2022-07-29T02:34:44.080Z,61.92
2022-07-29T02:37:14.119Z,62.16
2022-07-29T02:39:45.073Z,62.15
2022-07-29T02:42:18.292Z,62.54
2022-07-29T02:44:46.731Z,63.38
2022-07-29T02:47:41.326Z,63.49
2022-07-29T02:50:30.446Z,63.38
2022-07-29T02:53:19.209Z,63.73
2022-07-29T02:55:56.802Z,63.37
2022-07-29T02:58:35.305Z,63.56
2022-07-29T03:01:11.635Z,65.20
2022-07-29T03:03:40.959Z,66.40
2022-07-29T03:06:10.396Z,64.67
2022-07-29T03:09:00.349Z,64.30
2022-07-29T03:11:40.135Z,64.50
2022-07-29T03:14:22.254Z,66.31
2022-07-29T03:16:52.569Z,66.24
2022-07-29T03:19:21.662Z,65.69
2022-07-29T03:21:51.032Z,68.32
2022-07-29T03:24:39.783Z,67.54
2022-07-29T03:27:08.501Z,68.58
2022-07-29T03:29:38.166Z,68.63
2022-07-29T03:32:08.561Z,69.61
2022-07-29T03:34:39.082Z,74.04
2022-07-29T03:37:08.113Z,75.29
2022-07-29T03:39:42.811Z,75.30
2022-07-29T03:42:16.338Z,73.02
2022-07-29T03:44:50.087Z,72.66
2022-07-29T03:47:35.514Z,71.91
2022-07-29T03:50:16.497Z,72.55
2022-07-29T03:52:45.384Z,73.88
2022-07-29T03:55:15.277Z,74.32
2022-07-29T03:57:46.430Z,73.66
2022-07-29T04:00:19.076Z,72.96
2022-07-29T04:02:50.115Z,73.36
2022-07-29T04:05:19.997Z,73.25
2022-07-29T04:07:50.167Z,72.90
2022-07-29T04:10:26.916Z,73.06
2022-07-29T04:13:01.748Z,72.90
2022-07-29T04:15:31.004Z,74.45
2022-07-29T04:18:00.738Z,72.63
2022-07-29T04:20:29.282Z,72.42
2022-07-29T04:22:57.834Z,72.89
2022-07-29T04:25:26.196Z,73.36
2022-07-29T04:28:04.271Z,74.63
2022-07-29T04:30:35.046Z,75.33
2022-07-29T04:33:06.364Z,74.27
2022-07-29T04:35:50.371Z,74.71
2022-07-29T04:38:21.087Z,76.42
2022-07-29T04:40:49.749Z,75.67
2022-07-29T04:43:22.452Z,75.10
2022-07-29T04:45:51.910Z,75.32
2022-07-29T04:48:23.987Z,74.52
2022-07-29T04:50:57.792Z,76.11
2022-07-29T04:53:26.997Z,75.72
2022-07-29T04:55:55.325Z,73.78
2022-07-29T04:58:24.834Z,74.52
2022-07-29T05:00:53.309Z,74.76
2022-07-29T05:03:21.897Z,75.69
2022-07-29T05:05:50.213Z,77.50
2022-07-29T05:08:18.505Z,75.84
2022-07-29T05:10:47.260Z,75.10
2022-07-29T05:13:15.719Z,75.33
2022-07-29T05:15:44.286Z,76.57
2022-07-29T05:18:12.632Z,75.38
2022-07-29T05:20:41.235Z,75.57
2022-07-29T05:23:10.074Z,75.83
2022-07-29T05:25:43.570Z,75.69
2022-07-29T05:28:13.534Z,76.77
2022-07-29T05:30:42.357Z,77.48
2022-07-29T05:33:34.693Z,76.62
2022-07-29T05:36:00.950Z,77.32
2022-07-29T05:38:30.253Z,75.66
2022-07-29T05:41:00.773Z,75.35
2022-07-29T05:43:29.643Z,74.73
2022-07-29T05:45:58.523Z,74.64
2022-07-29T05:48:27.017Z,74.71
2022-07-29T05:50:56.093Z,74.56
2022-07-29T05:53:24.928Z,74.63
2022-07-29T05:55:53.809Z,74.45
2022-07-29T05:58:22.152Z,74.46
2022-07-29T06:00:50.503Z,75.03
2022-07-29T06:03:18.890Z,74.51
2022-07-29T06:05:47.322Z,73.74
2022-07-29T06:08:15.805Z,74.26
2022-07-29T06:10:44.492Z,73.57
2022-07-29T06:13:13.864Z,74.22
2022-07-29T06:15:42.510Z,74.38
2022-07-29T06:18:12.003Z,75.51
2022-07-29T06:20:40.469Z,74.22
2022-07-29T06:23:09.398Z,74.23
2022-07-29T06:25:37.885Z,74.76
2022-07-29T06:28:06.331Z,74.97
2022-07-29T06:30:34.843Z,75.02
2022-07-29T06:33:05.162Z,75.31
2022-07-29T06:35:38.947Z,75.07
2022-07-29T06:38:30.137Z,74.18
2022-07-29T06:41:01.507Z,73.67
2022-07-29T06:43:52.377Z,73.63
2022-07-29T06:46:24.133Z,73.44
2022-07-29T06:48:53.565Z,73.56
2022-07-29T06:51:23.892Z,73.26
2022-07-29T06:53:59.700Z,73.09
2022-07-29T06:56:38.605Z,74.01
2022-07-29T06:59:10.821Z,73.24
2022-07-29T07:01:42.273Z,73.37
2022-07-29T07:04:11.661Z,73.30
2022-07-29T07:06:40.891Z,72.78
2022-07-29T07:09:09.380Z,72.41
2022-07-29T07:11:37.894Z,72.03
2022-07-29T07:14:06.644Z,71.82
2022-07-29T07:16:34.989Z,71.72
2022-07-29T07:19:03.644Z,71.12
2022-07-29T07:21:33.565Z,70.28
2022-07-29T07:24:02.347Z,70.73
2022-07-29T07:26:30.837Z,71.13
2022-07-29T07:28:59.925Z,70.61
2022-07-29T07:31:28.493Z,71.12
2022-07-29T07:33:56.965Z,71.08
2022-07-29T07:36:25.545Z,70.50
2022-07-29T07:38:54.134Z,69.89
2022-07-29T07:41:23.633Z,69.92
2022-07-29T07:43:52.420Z,69.39
2022-07-29T07:46:21.099Z,69.59
2022-07-29T07:48:49.887Z,69.34
2022-07-29T07:51:18.414Z,69.17
2022-07-29T07:53:50.590Z,69.25
2022-07-29T07:56:19.470Z,69.43
2022-07-29T07:58:48.124Z,69.26
2022-07-29T08:01:20.146Z,68.84
2022-07-29T08:03:48.874Z,68.42
2022-07-29T08:06:17.665Z,68.75
2022-07-29T08:08:46.250Z,68.17
2022-07-29T08:11:15.689Z,68.26
2022-07-29T08:13:44.442Z,67.97
2022-07-29T08:16:13.861Z,67.55
2022-07-29T08:18:44.620Z,67.39
2022-07-29T08:21:15.595Z,67.04
2022-07-29T08:23:57.727Z,66.44
2022-07-29T08:26:28.765Z,66.18
2022-07-29T08:28:57.460Z,65.97
2022-07-29T08:31:26.219Z,65.75
2022-07-29T08:33:54.925Z,65.89
2022-07-29T08:36:23.443Z,66.18
2022-07-29T08:38:52.179Z,66.01
2022-07-29T08:41:21.398Z,65.36
2022-07-29T08:43:51.139Z,65.83
2022-07-29T08:46:22.081Z,65.21
2022-07-29T08:48:50.793Z,63.88
2022-07-29T08:51:22.087Z,64.36
2022-07-29T08:53:51.840Z,63.20
2022-07-29T08:56:22.253Z,62.93
2022-07-29T08:58:52.264Z,62.70
2022-07-29T09:01:36.352Z,62.18
2022-07-29T09:04:13.418Z,62.16
2022-07-29T09:06:48.781Z,62.33
2022-07-29T09:09:18.012Z,62.11
2022-07-29T09:11:46.593Z,62.17
2022-07-29T09:14:16.437Z,62.57
2022-07-29T09:16:53.635Z,62.32
2022-07-29T09:19:38.494Z,62.24
2022-07-29T09:22:31.516Z,61.77
2022-07-29T09:25:00.311Z,61.27
2022-07-29T09:27:30.048Z,61.11
2022-07-29T09:30:13.750Z,61.40
2022-07-29T09:33:02.305Z,61.31
2022-07-29T09:35:32.369Z,60.47
2022-07-29T09:38:12.809Z,59.99
2022-07-29T09:40:41.680Z,60.17
2022-07-29T09:43:14.769Z,59.62
2022-07-29T09:45:43.389Z,58.43
2022-07-29T09:48:29.996Z,59.25
2022-07-29T09:51:01.106Z,59.34
2022-07-29T09:53:38.702Z,59.95
2022-07-29T09:56:07.624Z,61.60
2022-07-29T09:58:36.177Z,63.91
2022-07-29T10:01:05.306Z,64.97
2022-07-29T10:03:33.995Z,66.35
2022-07-29T10:06:11.220Z,65.72
2022-07-29T10:08:39.831Z,66.82
2022-07-29T10:11:20.395Z,66.13
2022-07-29T10:13:50.112Z,66.92
2022-07-29T10:16:19.209Z,68.50
2022-07-29T10:18:48.115Z,69.31
2022-07-29T10:21:35.600Z,71.17
2022-07-29T10:24:07.822Z,74.47
2022-07-29T10:26:44.270Z,77.79
2022-07-29T10:29:12.869Z,77.85
2022-07-29T10:31:59.301Z,75.87
2022-07-29T10:34:52.102Z,75.57
2022-07-29T10:38:05.343Z,75.81
2022-07-29T10:41:59.762Z,76.62
2022-07-29T10:44:29.013Z,73.91
2022-07-29T10:46:57.767Z,72.76
2022-07-29T10:49:30.403Z,73.26
2022-07-29T10:52:08.305Z,73.68
2022-07-29T10:54:36.961Z,74.55
2022-07-29T10:57:25.587Z,76.31
2022-07-29T11:00:16.884Z,75.37
2022-07-29T11:02:50.240Z,74.98
2022-07-29T11:05:22.246Z,76.70
2022-07-29T11:08:26.269Z,79.32
2022-07-29T11:11:22.051Z,80.67
2022-07-29T11:13:57.076Z,81.34
2022-07-29T11:16:26.876Z,80.23
2022-07-29T11:19:14.088Z,80.03
2022-07-29T11:22:05.304Z,80.17
2022-07-29T11:24:35.763Z,79.26
2022-07-29T11:27:21.198Z,80.82
2022-07-29T11:29:53.760Z,80.15
2022-07-29T11:32:25.048Z,77.82
2022-07-29T11:35:37.112Z,77.72
2022-07-29T11:38:31.802Z,77.85
2022-07-29T11:41:25.982Z,76.57
2022-07-29T11:44:01.637Z,76.18
2022-07-29T11:46:50.190Z,74.91
2022-07-29T11:49:32.490Z,74.90
2022-07-29T11:52:16.113Z,75.33
2022-07-29T11:54:58.342Z,75.05
2022-07-29T11:57:37.175Z,74.68
2022-07-29T12:00:12.361Z,74.30
2022-07-29T12:02:48.712Z,76.03
2022-07-29T12:05:36.422Z,74.84
2022-07-29T12:08:14.517Z,74.17
2022-07-29T12:10:44.525Z,73.83
2022-07-29T12:13:13.797Z,72.83
2022-07-29T12:15:45.940Z,72.54
2022-07-29T12:18:19.680Z,71.70
2022-07-29T12:21:03.903Z,71.13
2022-07-29T12:23:34.422Z,71.17
2022-07-29T12:26:10.852Z,69.72
2022-07-29T12:28:40.035Z,68.11
2022-07-29T12:31:44.051Z,69.10
2022-07-29T12:34:04.860Z,66.96
2022-07-29T12:36:34.040Z,65.54
2022-07-29T12:39:03.566Z,66.24
2022-07-29T12:41:32.750Z,64.60
2022-07-29T12:44:01.206Z,64.92
2022-07-29T12:46:29.571Z,63.93
2022-07-29T12:48:58.566Z,61.81
2022-07-29T12:51:36.156Z,59.87
2022-07-29T12:54:16.618Z,57.99
2022-07-29T12:56:46.251Z,56.27
2022-07-29T12:59:19.885Z,54.38
2022-07-29T13:01:51.484Z,54.87
2022-07-29T13:04:32.484Z,53.20
2022-07-29T13:07:04.519Z,54.04
2022-07-29T13:09:43.889Z,52.96
2022-07-29T13:12:15.171Z,51.14
2022-07-29T13:14:51.813Z,51.92
2022-07-29T13:17:32.762Z,50.05
2022-07-29T13:20:13.491Z,48.07
2022-07-29T13:22:43.460Z,47.79
2022-07-29T13:25:11.991Z,48.59
2022-07-29T13:27:40.901Z,49.53
2022-07-29T13:30:11.994Z,48.59
2022-07-29T13:32:40.661Z,46.82
2022-07-29T13:35:10.138Z,46.59
2022-07-29T13:37:41.777Z,44.29
2022-07-29T13:40:11.995Z,43.11
2022-07-29T13:42:41.450Z,44.91
2022-07-29T13:45:12.157Z,43.74
2022-07-29T13:47:43.598Z,44.01
2022-07-29T13:50:16.667Z,43.67
2022-07-29T13:52:45.166Z,43.38
2022-07-29T13:55:13.600Z,43.88
2022-07-29T13:57:42.337Z,44.06
2022-07-29T14:00:12.022Z,44.56
2022-07-29T14:02:40.809Z,44.71
2022-07-29T14:05:11.540Z,44.30
2022-07-29T14:07:40.522Z,43.19
2022-07-29T14:10:10.019Z,43.05
2022-07-29T14:12:39.211Z,42.10
2022-07-29T14:15:08.151Z,41.12
2022-07-29T14:17:36.691Z,41.31
2022-07-29T14:20:06.435Z,41.59
2022-07-29T14:22:37.817Z,43.65
2022-07-29T14:25:14.442Z,43.76
2022-07-29T14:27:44.894Z,42.51
2022-07-29T14:30:14.184Z,42.98
2022-07-29T14:32:42.758Z,42.98
2022-07-29T14:35:11.390Z,43.38
2022-07-29T14:37:41.364Z,42.52
2022-07-29T14:40:11.556Z,43.05
2022-07-29T14:42:40.950Z,43.05
2022-07-29T14:45:10.897Z,42.26
2022-07-29T14:47:40.557Z,43.83
2022-07-29T14:50:10.844Z,43.64
2022-07-29T14:52:39.541Z,44.02
2022-07-29T14:55:19.594Z,45.05
2022-07-29T14:57:49.629Z,45.01
2022-07-29T15:00:19.007Z,46.10
2022-07-29T15:03:01.890Z,46.31
2022-07-29T15:05:34.151Z,46.97
2022-07-29T15:08:02.494Z,47.76
2022-07-29T15:10:30.989Z,48.33
2022-07-29T15:12:59.399Z,47.76
2022-07-29T15:15:27.709Z,48.98
2022-07-29T15:17:56.231Z,48.65
2022-07-29T15:20:26.935Z,48.53
2022-07-29T15:22:57.213Z,48.07
2022-07-29T15:25:28.368Z,48.63
2022-07-29T15:28:01.276Z,48.58
2022-07-29T15:30:34.663Z,48.37
2022-07-29T15:33:04.356Z,49.46
2022-07-29T15:35:40.256Z,49.64
2022-07-29T15:38:09.507Z,50.41
2022-07-29T15:40:42.333Z,50.86
2022-07-29T15:43:11.026Z,52.23
2022-07-29T15:46:04.443Z,52.57
2022-07-29T15:48:32.948Z,53.28
2022-07-29T15:51:01.793Z,54.19
2022-07-29T15:53:30.199Z,54.00
2022-07-29T15:55:58.505Z,53.79
2022-07-29T15:58:26.847Z,56.09
2022-07-29T16:00:55.275Z,57.69
2022-07-29T16:03:23.645Z,57.86
2022-07-29T16:05:52.122Z,57.44
2022-07-29T16:08:21.258Z,59.11
2022-07-29T16:10:49.604Z,58.64
2022-07-29T16:13:18.978Z,56.83
2022-07-29T16:16:02.828Z,57.53
2022-07-29T16:18:31.553Z,57.66
2022-07-29T16:20:59.905Z,58.70
2022-07-29T16:23:28.217Z,58.39
2022-07-29T16:26:00.250Z,58.67
2022-07-29T16:28:30.431Z,59.43
2022-07-29T16:30:59.235Z,58.97
2022-07-29T16:33:28.415Z,59.82
2022-07-29T16:36:18.789Z,61.65
2022-07-29T16:38:49.068Z,61.45
2022-07-29T16:41:17.458Z,61.25
2022-07-29T16:43:46.609Z,61.60
2022-07-29T16:46:18.531Z,62.39
2022-07-29T16:48:48.569Z,62.72
2022-07-29T16:51:17.107Z,66.57
2022-07-29T16:53:45.790Z,66.11
2022-07-29T16:56:17.524Z,67.77
2022-07-29T16:58:45.851Z,65.49
2022-07-29T17:01:14.277Z,64.52
2022-07-29T17:04:00.946Z,66.89
2022-07-29T17:06:29.661Z,71.68
2022-07-29T17:08:58.435Z,69.08
2022-07-29T17:11:53.170Z,68.51
2022-07-29T17:14:15.216Z,66.07
2022-07-29T17:16:43.631Z,66.64
2022-07-29T17:19:28.529Z,67.00
2022-07-29T17:22:03.528Z,67.20
2022-07-29T17:24:33.912Z,68.80
2022-07-29T17:27:02.589Z,68.27
2022-07-29T17:29:31.047Z,67.36
2022-07-29T17:32:00.225Z,68.43
2022-07-29T17:34:28.567Z,69.36
2022-07-29T17:36:57.978Z,70.80
2022-07-29T17:39:26.429Z,70.72
2022-07-29T17:41:54.750Z,72.13
2022-07-29T17:44:23.033Z,72.04
2022-07-29T17:46:51.471Z,71.74
2022-07-29T17:49:20.373Z,71.71
2022-07-29T17:51:48.696Z,72.21
2022-07-29T17:54:16.999Z,71.46
2022-07-29T17:56:45.403Z,71.41
2022-07-29T17:59:14.628Z,71.38
2022-07-29T18:01:43.135Z,72.17
2022-07-29T18:04:11.508Z,71.36
2022-07-29T18:06:40.737Z,71.35
2022-07-29T18:09:09.375Z,73.52
2022-07-29T18:11:37.657Z,73.20
2022-07-29T18:14:07.397Z,74.90
2022-07-29T18:16:36.285Z,73.36
2022-07-29T18:19:05.088Z,73.22
2022-07-29T18:21:51.110Z,73.03
2022-07-29T18:24:25.814Z,75.21
2022-07-29T18:26:54.399Z,73.59
2022-07-29T18:29:22.774Z,73.35
2022-07-29T18:31:51.202Z,73.47
2022-07-29T18:34:19.488Z,73.67
2022-07-29T18:36:47.916Z,73.60
2022-07-29T18:39:20.958Z,72.71
2022-07-29T18:41:52.624Z,74.07
2022-07-29T18:44:22.573Z,75.32
2022-07-29T18:46:52.610Z,74.51
2022-07-29T18:49:21.184Z,74.30
2022-07-29T18:51:50.769Z,74.84
2022-07-29T18:54:20.100Z,74.42
2022-07-29T18:56:49.478Z,74.52
2022-07-29T18:59:19.869Z,74.27
2022-07-29T19:01:49.224Z,76.33
2022-07-29T19:04:18.253Z,76.89
2022-07-29T19:06:46.620Z,78.48
2022-07-29T19:09:15.208Z,75.89
2022-07-29T19:11:43.637Z,75.29
2022-07-29T19:14:12.225Z,75.94
2022-07-29T19:16:40.551Z,77.11
2022-07-29T19:19:09.063Z,77.47
2022-07-29T19:21:37.515Z,77.22
2022-07-29T19:24:12.370Z,76.56
2022-07-29T19:26:47.173Z,76.94
2022-07-29T19:29:17.067Z,77.25
2022-07-29T19:31:45.543Z,77.12
2022-07-29T19:34:14.254Z,77.49
2022-07-29T19:36:43.590Z,77.63
2022-07-29T19:39:12.142Z,76.80
2022-07-29T19:41:40.469Z,77.19
2022-07-29T19:44:08.885Z,77.07
2022-07-29T19:46:37.695Z,78.05
2022-07-29T19:49:06.863Z,77.52
2022-07-29T19:51:35.283Z,77.57
2022-07-29T19:54:04.032Z,77.89
2022-07-29T19:56:32.411Z,77.88
2022-07-29T19:59:00.938Z,78.35
2022-07-29T20:01:32.250Z,77.83
2022-07-29T20:04:00.640Z,78.38
2022-07-29T20:06:28.947Z,78.74
2022-07-29T20:08:58.858Z,78.48
2022-07-29T20:11:29.832Z,78.91
2022-07-29T20:13:58.318Z,79.26
2022-07-29T20:16:26.795Z,79.25
2022-07-29T20:18:55.195Z,77.88
2022-07-29T20:21:23.518Z,78.30
2022-07-29T20:23:51.841Z,78.52
2022-07-29T20:26:20.153Z,79.30
2022-07-29T20:28:49.603Z,80.78
2022-07-29T20:31:19.107Z,79.62
2022-07-29T20:33:48.020Z,79.69
2022-07-29T20:36:16.882Z,80.98
2022-07-29T20:38:45.250Z,79.73
2022-07-29T20:41:14.606Z,79.25
2022-07-29T20:43:43.452Z,79.10
2022-07-29T20:46:11.828Z,79.12
2022-07-29T20:48:41.012Z,79.72
2022-07-29T20:51:09.753Z,79.13
2022-07-29T20:53:40.205Z,79.47
2022-07-29T20:56:08.913Z,79.35
2022-07-29T20:58:38.337Z,79.78
2022-07-29T21:01:08.277Z,79.87
2022-07-29T21:03:36.672Z,79.60
2022-07-29T21:06:05.115Z,79.48
2022-07-29T21:08:33.769Z,79.20
2022-07-29T21:11:02.229Z,79.00
2022-07-29T21:13:31.223Z,79.55
2022-07-29T21:16:04.273Z,80.57
2022-07-29T21:18:37.546Z,80.48
2022-07-29T21:21:06.542Z,79.62
2022-07-29T21:23:35.516Z,79.58
2022-07-29T21:26:08.698Z,79.65
2022-07-29T21:28:42.206Z,81.81
2022-07-29T21:31:12.607Z,80.96
2022-07-29T21:33:43.848Z,80.33
2022-07-29T21:36:47.625Z,80.40
2022-07-29T21:39:07.215Z,80.47
2022-07-29T21:41:35.999Z,80.35
2022-07-29T21:44:04.409Z,80.26
2022-07-29T21:46:32.750Z,82.37
2022-07-29T21:49:01.179Z,80.80
2022-07-29T21:51:29.551Z,81.27
2022-07-29T21:53:57.946Z,80.72
2022-07-29T21:56:27.877Z,80.25
2022-07-29T21:58:56.460Z,79.92
2022-07-29T22:01:24.986Z,79.92
2022-07-29T22:03:53.310Z,80.24
2022-07-29T22:06:21.884Z,80.98
2022-07-29T22:08:50.251Z,80.62
2022-07-29T22:11:18.597Z,80.16
2022-07-29T22:13:48.650Z,79.57
2022-07-29T22:16:17.753Z,80.76
2022-07-29T22:18:47.245Z,81.99
2022-07-29T22:21:16.053Z,81.16
2022-07-29T22:23:44.373Z,80.74
2022-07-29T22:26:12.831Z,81.11
2022-07-29T22:28:41.176Z,80.41
2022-07-29T22:31:09.576Z,79.97
2022-07-29T22:33:38.155Z,79.96
2022-07-29T22:36:06.979Z,79.65
2022-07-29T22:38:35.340Z,79.79
2022-07-29T22:41:03.699Z,79.81
2022-07-29T22:43:32.133Z,79.97
2022-07-29T22:46:01.214Z,79.65
2022-07-29T22:48:29.581Z,79.88
2022-07-29T22:50:57.937Z,79.32
2022-07-29T22:53:26.684Z,80.42
2022-07-29T22:55:55.054Z,80.02
2022-07-29T22:58:23.400Z,79.98
2022-07-29T23:00:51.833Z,79.78
2022-07-29T23:03:21.469Z,79.75
2022-07-29T23:05:51.677Z,79.60
2022-07-29T23:08:20.312Z,80.11
2022-07-29T23:10:48.654Z,79.62
2022-07-29T23:13:17.099Z,79.43
2022-07-29T23:15:45.433Z,79.25
2022-07-29T23:18:14.287Z,79.44
2022-07-29T23:20:44.086Z,79.44
2022-07-29T23:23:12.422Z,79.76
2022-07-29T23:25:40.938Z,79.42
2022-07-29T23:28:12.244Z,78.96
2022-07-29T23:30:42.698Z,78.39
2022-07-29T23:33:11.178Z,78.01
2022-07-29T23:35:39.542Z,78.04
2022-07-29T23:38:07.920Z,77.85
2022-07-29T23:40:36.321Z,78.26
2022-07-29T23:43:08.890Z,78.57
2022-07-29T23:45:44.944Z,79.15
2022-07-29T23:48:17.220Z,78.57
2022-07-29T23:50:45.642Z,78.12
2022-07-29T23:53:14.251Z,78.06
2022-07-29T23:55:42.782Z,77.86
2022-07-29T23:58:11.054Z,79.68
